createdAt,value
2023-05-22T00:00:54.900Z,1263.00
2023-05-22T00:01:54.926Z,1220.00
2023-05-22T00:02:55.059Z,1239.00
2023-05-22T00:03:54.936Z,1220.00
2023-05-22T00:04:54.985Z,1253.00
2023-05-22T00:05:54.941Z,1254.00
2023-05-22T00:06:54.975Z,1248.00
2023-05-22T00:07:54.973Z,1229.00
2023-05-22T00:08:54.975Z,1248.00
2023-05-22T00:09:54.995Z,1304.00
2023-05-22T00:10:54.995Z,1332.00
2023-05-22T00:11:55.022Z,1347.00
2023-05-22T00:12:55.019Z,1303.00
2023-05-22T00:13:55.022Z,1273.00
2023-05-22T00:14:55.078Z,1199.00
2023-05-22T00:15:55.089Z,1150.00
2023-05-22T00:16:55.164Z,1185.00
2023-05-22T00:17:55.091Z,1200.00
2023-05-22T00:18:55.127Z,1155.00
2023-05-22T00:19:55.131Z,1160.00
2023-05-22T00:20:55.096Z,1168.00
2023-05-22T00:21:55.141Z,1248.00
2023-05-22T00:22:55.131Z,1250.00
2023-05-22T00:23:55.123Z,1218.00
2023-05-22T00:24:55.166Z,1205.00
2023-05-22T00:25:55.140Z,1201.00
2023-05-22T00:26:55.144Z,1205.00
2023-05-22T00:27:55.190Z,1254.00
2023-05-22T00:28:55.180Z,1264.00
2023-05-22T00:29:55.203Z,1285.00
2023-05-22T00:30:55.202Z,1271.00
2023-05-22T00:31:55.238Z,1308.00
2023-05-22T00:32:55.264Z,1341.00
2023-05-22T00:33:55.296Z,1332.00
2023-05-22T00:34:55.303Z,1297.00
2023-05-22T00:35:55.324Z,1301.00
2023-05-22T00:36:55.291Z,1271.00
2023-05-22T00:37:55.353Z,1260.00
2023-05-22T00:38:55.352Z,1178.00
2023-05-22T00:39:55.372Z,1173.00
2023-05-22T00:40:55.375Z,1139.00
2023-05-22T00:41:55.437Z,1133.00
2023-05-22T00:42:55.441Z,1098.00
2023-05-22T00:43:55.458Z,1101.00
2023-05-22T00:44:55.479Z,1091.00
2023-05-22T00:45:55.518Z,1100.00
2023-05-22T00:46:55.603Z,1111.00
2023-05-22T00:47:55.577Z,1123.00
2023-05-22T00:48:55.608Z,1127.00
2023-05-22T00:49:55.554Z,1116.00
2023-05-22T00:50:55.609Z,1115.00
2023-05-22T00:51:55.643Z,1122.00
2023-05-22T00:52:55.592Z,1111.00
2023-05-22T00:53:55.604Z,1085.00
2023-05-22T00:54:55.641Z,1151.00
2023-05-22T00:55:55.632Z,1157.00
2023-05-22T00:56:55.670Z,1161.00
2023-05-22T00:57:55.661Z,1197.00
2023-05-22T00:58:55.662Z,1167.00
2023-05-22T00:59:55.672Z,1217.00
2023-05-22T01:00:55.752Z,1208.00
2023-05-22T01:01:55.773Z,1251.00
2023-05-22T01:02:55.827Z,1236.00
2023-05-22T01:03:55.885Z,1238.00
2023-05-22T01:04:55.742Z,1198.00
2023-05-22T01:05:55.778Z,1225.00
2023-05-22T01:06:55.786Z,1211.00
2023-05-22T01:07:55.801Z,1221.00
2023-05-22T01:08:55.800Z,1231.00
2023-05-22T01:09:55.817Z,1245.00
2023-05-22T01:10:55.873Z,1183.00
2023-05-22T01:11:55.849Z,1212.00
2023-05-22T01:12:55.860Z,1220.00
2023-05-22T01:13:55.869Z,1171.00
2023-05-22T01:14:55.881Z,1229.00
2023-05-22T01:15:55.943Z,1238.00
2023-05-22T01:16:55.920Z,1270.00
2023-05-22T01:17:56.019Z,1218.00
2023-05-22T01:18:56.027Z,1187.00
2023-05-22T01:19:55.980Z,1189.00
2023-05-22T01:20:55.988Z,1182.00
2023-05-22T01:21:56.043Z,1184.00
2023-05-22T01:22:56.013Z,1192.00
2023-05-22T01:23:56.014Z,1188.00
2023-05-22T01:24:56.027Z,1179.00
2023-05-22T01:25:56.056Z,1186.00
2023-05-22T01:26:56.059Z,1192.00
2023-05-22T01:27:56.071Z,1154.00
2023-05-22T01:28:56.099Z,1179.00
2023-05-22T01:29:56.110Z,1175.00
2023-05-22T01:30:56.116Z,1198.00
2023-05-22T01:31:56.147Z,1270.00
2023-05-22T01:32:56.189Z,1274.00
2023-05-22T01:33:56.382Z,1256.00
2023-05-22T01:34:56.224Z,1239.00
2023-05-22T01:35:56.241Z,1194.00
2023-05-22T01:36:56.302Z,1203.00
2023-05-22T01:37:56.262Z,1196.00
2023-05-22T01:38:56.255Z,1240.00
2023-05-22T01:39:56.363Z,1202.00
2023-05-22T01:40:56.323Z,1199.00
2023-05-22T01:41:56.325Z,1177.00
2023-05-22T01:42:56.418Z,1171.00
2023-05-22T01:43:56.847Z,1177.00
2023-05-22T01:44:56.330Z,1179.00
2023-05-22T01:45:56.439Z,1178.00
2023-05-22T01:46:56.382Z,1168.00
2023-05-22T01:47:56.389Z,1186.00
2023-05-22T01:48:56.393Z,1192.00
2023-05-22T01:49:56.418Z,1191.00
2023-05-22T01:50:56.437Z,1171.00
2023-05-22T01:51:56.454Z,1208.00
2023-05-22T01:52:56.489Z,1233.00
2023-05-22T01:53:56.627Z,1224.00
2023-05-22T01:54:56.691Z,1273.00
2023-05-22T01:55:56.657Z,1275.00
2023-05-22T01:56:56.695Z,1279.00
2023-05-22T01:57:56.622Z,1245.00
2023-05-22T01:58:57.355Z,1279.00
2023-05-22T01:59:56.665Z,1261.00
2023-05-22T02:00:56.708Z,1294.00
2023-05-22T02:01:56.663Z,1275.00
2023-05-22T02:02:56.862Z,1232.00
2023-05-22T02:03:56.708Z,1211.00
2023-05-22T02:04:56.717Z,1240.00
2023-05-22T02:05:56.740Z,1268.00
2023-05-22T02:06:56.747Z,1277.00
2023-05-22T02:07:56.779Z,1264.00
2023-05-22T02:08:56.787Z,1257.00
2023-05-22T02:09:56.823Z,1256.00
2023-05-22T02:10:56.848Z,1260.00
2023-05-22T02:11:56.856Z,1237.00
2023-05-22T02:12:56.890Z,1258.00
2023-05-22T02:13:56.910Z,1254.00
2023-05-22T02:14:56.957Z,1249.00
2023-05-22T02:15:56.997Z,1252.00
2023-05-22T02:16:57.003Z,1246.00
2023-05-22T02:17:57.077Z,1254.00
2023-05-22T02:18:57.058Z,1264.00
2023-05-22T02:19:57.046Z,1225.00
2023-05-22T02:20:57.082Z,1253.00
2023-05-22T02:21:57.099Z,1253.00
2023-05-22T02:22:57.116Z,1253.00
2023-05-22T02:23:57.124Z,1255.00
2023-05-22T02:24:57.167Z,1251.00
2023-05-22T02:25:57.160Z,1245.00
2023-05-22T02:26:57.189Z,1247.00
2023-05-22T02:27:57.208Z,1290.00
2023-05-22T02:28:57.231Z,1302.00
2023-05-22T02:29:57.260Z,1314.00
2023-05-22T02:30:57.312Z,1324.00
2023-05-22T02:31:57.317Z,1315.00
2023-05-22T02:32:57.376Z,1306.00
2023-05-22T02:33:57.348Z,1291.00
2023-05-22T02:34:57.376Z,1308.00
2023-05-22T02:35:57.408Z,1305.00
2023-05-22T02:36:57.421Z,1306.00
2023-05-22T02:37:57.460Z,1300.00
2023-05-22T02:38:57.485Z,1296.00
2023-05-22T02:39:57.475Z,1306.00
2023-05-22T02:40:57.512Z,1308.00
2023-05-22T02:41:57.527Z,1310.00
2023-05-22T02:42:57.582Z,1296.00
2023-05-22T02:43:57.611Z,1318.00
2023-05-22T02:44:57.606Z,1337.00
2023-05-22T02:45:57.629Z,1310.00
2023-05-22T02:46:57.692Z,1326.00
2023-05-22T02:47:57.685Z,1346.00
2023-05-22T02:48:57.700Z,1334.00
2023-05-22T02:49:57.699Z,1324.00
2023-05-22T02:50:57.747Z,1315.00
2023-05-22T02:51:57.759Z,1309.00
2023-05-22T02:52:57.794Z,1298.00
2023-05-22T02:53:57.831Z,1325.00
2023-05-22T02:54:57.810Z,1315.00
2023-05-22T02:55:57.834Z,1306.00
2023-05-22T02:56:57.863Z,1323.00
2023-05-22T02:57:57.892Z,1303.00
2023-05-22T02:58:57.909Z,1329.00
2023-05-22T02:59:57.956Z,1353.00
2023-05-22T03:00:57.959Z,1350.00
2023-05-22T03:01:58.063Z,1341.00
2023-05-22T03:02:58.061Z,1313.00
2023-05-22T03:03:58.186Z,1317.00
2023-05-22T03:04:58.058Z,1341.00
2023-05-22T03:05:58.089Z,1344.00
2023-05-22T03:06:58.118Z,1345.00
2023-05-22T03:07:58.161Z,1353.00
2023-05-22T03:08:58.169Z,1369.00
2023-05-22T03:09:58.199Z,1347.00
2023-05-22T03:10:58.225Z,1339.00
2023-05-22T03:11:58.244Z,1329.00
2023-05-22T03:12:58.273Z,1343.00
2023-05-22T03:13:58.289Z,1319.00
2023-05-22T03:14:58.329Z,1313.00
2023-05-22T03:15:58.361Z,1310.00
2023-05-22T03:16:58.376Z,1315.00
2023-05-22T03:17:58.420Z,1293.00
2023-05-22T03:18:58.474Z,1296.00
2023-05-22T03:19:58.443Z,1265.00
2023-05-22T03:20:58.470Z,1323.00
2023-05-22T03:21:58.512Z,1317.00
2023-05-22T03:22:58.560Z,1330.00
2023-05-22T03:23:58.561Z,1340.00
2023-05-22T03:24:58.589Z,1329.00
2023-05-22T03:25:58.610Z,1345.00
2023-05-22T03:26:58.660Z,1336.00
2023-05-22T03:27:58.667Z,1333.00
2023-05-22T03:28:58.763Z,1348.00
2023-05-22T03:29:58.745Z,1392.00
2023-05-22T03:30:58.747Z,1404.00
2023-05-22T03:31:58.767Z,1390.00
2023-05-22T03:32:58.859Z,1395.00
2023-05-22T03:33:58.884Z,1411.00
2023-05-22T03:34:58.861Z,1378.00
2023-05-22T03:35:58.882Z,1396.00
2023-05-22T03:36:58.907Z,1397.00
2023-05-22T03:37:58.947Z,1403.00
2023-05-22T03:38:58.961Z,1395.00
2023-05-22T03:39:58.995Z,1413.00
2023-05-22T03:40:58.998Z,1423.00
2023-05-22T03:41:59.024Z,1411.00
2023-05-22T03:42:59.072Z,1411.00
2023-05-22T03:43:59.092Z,1417.00
2023-05-22T03:44:59.131Z,1383.00
2023-05-22T03:45:59.249Z,1410.00
2023-05-22T03:46:59.205Z,1447.00
2023-05-22T03:47:59.234Z,1431.00
2023-05-22T03:48:59.243Z,1428.00
2023-05-22T03:49:59.255Z,1429.00
2023-05-22T03:50:59.256Z,1434.00
2023-05-22T03:51:59.237Z,1436.00
2023-05-22T03:52:59.234Z,1458.00
2023-05-22T03:53:59.218Z,1454.00
2023-05-22T03:54:59.216Z,1468.00
2023-05-22T03:55:59.216Z,1473.00
2023-05-22T03:56:59.219Z,1497.00
2023-05-22T03:57:59.199Z,1441.00
2023-05-22T03:58:59.188Z,1449.00
2023-05-22T03:59:59.177Z,1439.00
2023-05-22T04:00:59.173Z,1443.00
2023-05-22T04:01:59.178Z,1437.00
2023-05-22T04:02:59.211Z,1451.00
2023-05-22T04:03:59.161Z,1425.00
2023-05-22T04:04:59.213Z,1433.00
2023-05-22T04:05:59.217Z,1448.00
2023-05-22T04:06:59.258Z,1427.00
2023-05-22T04:07:59.268Z,1433.00
2023-05-22T04:08:59.316Z,1429.00
2023-05-22T04:09:59.336Z,1443.00
2023-05-22T04:10:59.377Z,1445.00
2023-05-22T04:11:59.409Z,1452.00
2023-05-22T04:12:59.467Z,1444.00
2023-05-22T04:13:59.484Z,1440.00
2023-05-22T04:14:59.518Z,1435.00
2023-05-22T04:15:59.564Z,1471.00
2023-05-22T04:16:59.611Z,1470.00
2023-05-22T04:17:59.635Z,1504.00
2023-05-22T04:18:59.660Z,1511.00
2023-05-22T04:19:59.664Z,1496.00
2023-05-22T04:20:59.696Z,1491.00
2023-05-22T04:21:59.741Z,1448.00
2023-05-22T04:22:59.769Z,1466.00
2023-05-22T04:23:59.787Z,1503.00
2023-05-22T04:24:59.829Z,1516.00
2023-05-22T04:25:59.846Z,1511.00
2023-05-22T04:26:59.908Z,1508.00
2023-05-22T04:27:59.947Z,1498.00
2023-05-22T04:28:59.954Z,1482.00
2023-05-22T04:30:00.023Z,1466.00
2023-05-22T04:31:00.031Z,1461.00
2023-05-22T04:32:00.039Z,1464.00
2023-05-22T04:33:00.247Z,1494.00
2023-05-22T04:34:00.186Z,1495.00
2023-05-22T04:35:00.196Z,1515.00
2023-05-22T04:36:00.202Z,1551.00
2023-05-22T04:37:00.200Z,1555.00
2023-05-22T04:38:00.238Z,1556.00
2023-05-22T04:39:00.282Z,1540.00
2023-05-22T04:40:00.307Z,1548.00
2023-05-22T04:41:00.345Z,1568.00
2023-05-22T04:42:00.382Z,1552.00
2023-05-22T04:43:00.405Z,1569.00
2023-05-22T04:44:00.442Z,1552.00
2023-05-22T04:45:00.459Z,1514.00
2023-05-22T04:46:00.512Z,1521.00
2023-05-22T04:47:00.582Z,1527.00
2023-05-22T04:48:00.600Z,1547.00
2023-05-22T04:49:00.577Z,1543.00
2023-05-22T04:50:00.593Z,1539.00
2023-05-22T04:51:00.645Z,1554.00
2023-05-22T04:52:00.669Z,1543.00
2023-05-22T04:53:00.800Z,1501.00
2023-05-22T04:54:00.909Z,1521.00
2023-05-22T04:55:01.797Z,1537.00
2023-05-22T04:56:00.858Z,1544.00
2023-05-22T04:57:00.918Z,1543.00
2023-05-22T04:58:00.936Z,1570.00
2023-05-22T04:59:00.897Z,1569.00
2023-05-22T05:00:00.925Z,1585.00
2023-05-22T05:01:01.034Z,1582.00
2023-05-22T05:02:01.074Z,1575.00
2023-05-22T05:03:01.279Z,1539.00
2023-05-22T05:04:01.278Z,1513.00
2023-05-22T05:05:01.115Z,1541.00
2023-05-22T05:06:01.153Z,1550.00
2023-05-22T05:07:01.150Z,1585.00
2023-05-22T05:08:01.184Z,1564.00
2023-05-22T05:09:01.369Z,1560.00
2023-05-22T05:10:01.239Z,1515.00
2023-05-22T05:11:01.294Z,1497.00
2023-05-22T05:12:01.293Z,1502.00
2023-05-22T05:13:01.327Z,1481.00
2023-05-22T05:14:01.388Z,1524.00
2023-05-22T05:15:01.387Z,1546.00
2023-05-22T05:16:01.497Z,1521.00
2023-05-22T05:17:01.507Z,1506.00
2023-05-22T05:18:01.557Z,1501.00
2023-05-22T05:19:01.622Z,1498.00
2023-05-22T05:20:01.540Z,1490.00
2023-05-22T05:21:01.595Z,1519.00
2023-05-22T05:22:01.649Z,1523.00
2023-05-22T05:23:01.667Z,1536.00
2023-05-22T05:24:01.694Z,1492.00
2023-05-22T05:25:01.760Z,1499.00
2023-05-22T05:26:01.754Z,1534.00
2023-05-22T05:27:01.769Z,1525.00
2023-05-22T05:28:01.797Z,1513.00
2023-05-22T05:29:01.823Z,1567.00
2023-05-22T05:30:01.895Z,1524.00
2023-05-22T05:31:01.906Z,1531.00
2023-05-22T05:32:01.925Z,1533.00
2023-05-22T05:33:01.972Z,1565.00
2023-05-22T05:34:01.994Z,1554.00
2023-05-22T05:35:02.210Z,1604.00
2023-05-22T05:36:02.020Z,1707.00
2023-05-22T05:37:02.038Z,1751.00
2023-05-22T05:38:02.081Z,1825.00
2023-05-22T05:39:02.121Z,1910.00
2023-05-22T05:40:02.172Z,2004.00
2023-05-22T05:41:02.145Z,2113.00
2023-05-22T05:42:02.232Z,2178.00
2023-05-22T05:43:02.192Z,2257.00
2023-05-22T05:44:02.158Z,2358.00
2023-05-22T05:45:02.160Z,2430.00
2023-05-22T05:46:02.273Z,2488.00
2023-05-22T05:47:02.172Z,2525.00
2023-05-22T05:48:02.343Z,2562.00
2023-05-22T05:49:02.202Z,2617.00
2023-05-22T05:50:02.151Z,2653.00
2023-05-22T05:51:02.208Z,2696.00
2023-05-22T05:52:02.370Z,2791.00
2023-05-22T05:53:02.321Z,2812.00
2023-05-22T05:54:02.294Z,2838.00
2023-05-22T05:55:02.325Z,2897.00
2023-05-22T05:56:03.172Z,2950.00
2023-05-22T05:57:02.365Z,2974.00
2023-05-22T05:58:02.449Z,3051.00
2023-05-22T05:59:02.456Z,3053.00
2023-05-22T06:00:02.396Z,3065.00
2023-05-22T06:01:02.363Z,3085.00
2023-05-22T06:02:02.355Z,3085.00
2023-05-22T06:03:02.400Z,3087.00
2023-05-22T06:04:02.401Z,3056.00
2023-05-22T06:05:02.320Z,3002.00
2023-05-22T06:06:02.282Z,2949.00
2023-05-22T06:07:02.247Z,2896.00
2023-05-22T06:08:02.242Z,2878.00
2023-05-22T06:09:02.209Z,2832.00
2023-05-22T06:10:02.227Z,2799.00
2023-05-22T06:11:02.277Z,2787.00
2023-05-22T06:12:02.197Z,2747.00
2023-05-22T06:13:02.170Z,2713.00
2023-05-22T06:14:02.153Z,2692.00
2023-05-22T06:15:03.050Z,2693.00
2023-05-22T06:16:05.714Z,2709.00
2023-05-22T06:17:02.134Z,2712.00
2023-05-22T06:18:02.131Z,2724.00
2023-05-22T06:19:02.106Z,2760.00
2023-05-22T06:20:02.115Z,2799.00
2023-05-22T06:21:02.145Z,2842.00
2023-05-22T06:22:02.012Z,2902.00
2023-05-22T06:23:02.007Z,2950.00
2023-05-22T06:24:01.991Z,3006.00
2023-05-22T06:25:01.982Z,3065.00
2023-05-22T06:26:01.927Z,3119.00
2023-05-22T06:27:01.915Z,3120.00
2023-05-22T06:28:01.905Z,3088.00
2023-05-22T06:29:01.933Z,3088.00
2023-05-22T06:30:03.069Z,3105.00
2023-05-22T06:31:02.955Z,3150.00
2023-05-22T06:32:02.107Z,3154.00
2023-05-22T06:33:02.140Z,3197.00
2023-05-22T06:34:02.271Z,3198.00
2023-05-22T06:35:02.073Z,3207.00
2023-05-22T06:36:02.055Z,3226.00
2023-05-22T06:37:02.180Z,3260.00
2023-05-22T06:38:02.027Z,3317.00
2023-05-22T06:39:01.983Z,3328.00
2023-05-22T06:40:01.982Z,3323.00
2023-05-22T06:41:01.913Z,3292.00
2023-05-22T06:42:01.887Z,3328.00
2023-05-22T06:43:01.866Z,3356.00
2023-05-22T06:44:01.890Z,3396.00
2023-05-22T06:45:02.061Z,3390.00
2023-05-22T06:46:02.096Z,3390.00
2023-05-22T06:47:01.960Z,3324.00
2023-05-22T06:48:02.058Z,3287.00
2023-05-22T06:49:02.034Z,3319.00
2023-05-22T06:50:02.156Z,3335.00
2023-05-22T06:51:02.096Z,3275.00
2023-05-22T06:52:03.907Z,3188.00
2023-05-22T06:53:02.110Z,3189.00
2023-05-22T06:54:02.082Z,3192.00
2023-05-22T06:55:02.043Z,3168.00
2023-05-22T06:56:02.013Z,3195.00
2023-05-22T06:57:01.987Z,3210.00
2023-05-22T06:58:01.947Z,3258.00
2023-05-22T06:59:01.914Z,3223.00
2023-05-22T07:00:01.909Z,3215.00
2023-05-22T07:01:02.111Z,3237.00
2023-05-22T07:02:01.820Z,3308.00
2023-05-22T07:03:01.844Z,3379.00
2023-05-22T07:04:01.777Z,3404.00
2023-05-22T07:05:01.750Z,3404.00
2023-05-22T07:06:01.748Z,3346.00
2023-05-22T07:07:01.736Z,3344.00
2023-05-22T07:08:01.831Z,3400.00
2023-05-22T07:09:01.720Z,3431.00
2023-05-22T07:10:01.751Z,3462.00
2023-05-22T07:11:01.762Z,3476.00
2023-05-22T07:12:01.801Z,3493.00
2023-05-22T07:13:01.778Z,3491.00
2023-05-22T07:14:01.764Z,3471.00
2023-05-22T07:15:01.800Z,3461.00
2023-05-22T07:16:01.776Z,3462.00
2023-05-22T07:17:01.814Z,3473.00
2023-05-22T07:18:01.857Z,3471.00
2023-05-22T07:19:01.796Z,3470.00
2023-05-22T07:20:01.783Z,3454.00
2023-05-22T07:21:01.686Z,3477.00
2023-05-22T07:22:01.736Z,3441.00
2023-05-22T07:23:01.648Z,3436.00
2023-05-22T07:24:01.646Z,3456.00
2023-05-22T07:25:01.695Z,3465.00
2023-05-22T07:26:01.577Z,3465.00
2023-05-22T07:27:01.533Z,3466.00
2023-05-22T07:28:01.542Z,3436.00
2023-05-22T07:29:01.457Z,3417.00
2023-05-22T07:30:01.473Z,3423.00
2023-05-22T07:31:01.382Z,3420.00
2023-05-22T07:32:01.408Z,3408.00
2023-05-22T07:33:01.404Z,3410.00
2023-05-22T07:34:01.331Z,3414.00
2023-05-22T07:35:01.290Z,3405.00
2023-05-22T07:36:02.011Z,3364.00
2023-05-22T07:37:02.995Z,3331.00
2023-05-22T07:38:01.223Z,3255.00
2023-05-22T07:39:01.155Z,3134.00
2023-05-22T07:40:01.069Z,3124.00
2023-05-22T07:41:01.060Z,3106.00
2023-05-22T07:42:01.846Z,3109.00
2023-05-22T07:43:00.999Z,3110.00
2023-05-22T07:44:00.958Z,3113.00
2023-05-22T07:45:01.513Z,3114.00
2023-05-22T07:46:01.080Z,3114.00
2023-05-22T07:47:00.913Z,3108.00
2023-05-22T07:48:02.679Z,3078.00
2023-05-22T07:49:00.925Z,3077.00
2023-05-22T07:50:00.779Z,3084.00
2023-05-22T07:51:00.737Z,3093.00
2023-05-22T07:52:00.696Z,3107.00
2023-05-22T07:53:00.640Z,3121.00
2023-05-22T07:54:00.703Z,3108.00
2023-05-22T07:55:00.599Z,3065.00
2023-05-22T07:56:00.530Z,3053.00
2023-05-22T07:57:00.504Z,3010.00
2023-05-22T07:58:00.507Z,2963.00
2023-05-22T07:59:00.450Z,2909.00
2023-05-22T08:00:00.517Z,2859.00
2023-05-22T08:01:00.475Z,2802.00
2023-05-22T08:02:00.458Z,2743.00
2023-05-22T08:03:00.495Z,2703.00
2023-05-22T08:04:00.663Z,2657.00
2023-05-22T08:05:00.456Z,2611.00
2023-05-22T08:06:00.360Z,2548.00
2023-05-22T08:07:00.269Z,2550.00
2023-05-22T08:08:00.257Z,2529.00
2023-05-22T08:09:00.217Z,2469.00
2023-05-22T08:10:00.221Z,2414.00
2023-05-22T08:11:03.779Z,2403.00
2023-05-22T08:12:00.176Z,2398.00
2023-05-22T08:13:00.099Z,2338.00
2023-05-22T08:14:00.102Z,2239.00
2023-05-22T08:15:00.018Z,2229.00
2023-05-22T08:16:01.356Z,2155.00
2023-05-22T08:16:59.946Z,2079.00
2023-05-22T08:17:59.921Z,1996.00
2023-05-22T08:18:59.897Z,1911.00
2023-05-22T08:19:59.900Z,1814.00
2023-05-22T08:20:59.795Z,1784.00
2023-05-22T08:21:59.696Z,1763.00
2023-05-22T08:22:59.690Z,1864.00
2023-05-22T08:23:59.630Z,1867.00
2023-05-22T08:24:59.566Z,1838.00
2023-05-22T08:25:59.536Z,1781.00
2023-05-22T08:26:59.498Z,1734.00
2023-05-22T08:27:59.480Z,1723.00
2023-05-22T08:28:59.416Z,1682.00
2023-05-22T08:29:59.368Z,1658.00
2023-05-22T08:30:59.332Z,1602.00
2023-05-22T08:31:59.391Z,1498.00
2023-05-22T08:32:59.411Z,1453.00
2023-05-22T08:33:59.334Z,1404.00
2023-05-22T08:34:59.349Z,1321.00
2023-05-22T08:35:59.310Z,1257.00
2023-05-22T08:36:59.280Z,1234.00
2023-05-22T08:37:59.307Z,1158.00
2023-05-22T08:38:59.284Z,1137.00
2023-05-22T08:39:59.178Z,1041.00
2023-05-22T08:40:59.144Z,993.00
2023-05-22T08:41:59.144Z,945.00
2023-05-22T08:42:59.079Z,892.00
2023-05-22T08:43:59.188Z,857.00
2023-05-22T08:44:59.042Z,809.00
2023-05-22T08:45:59.048Z,773.00
2023-05-22T08:46:59.055Z,731.00
2023-05-22T08:47:59.032Z,702.00
2023-05-22T08:48:58.956Z,682.00
2023-05-22T08:49:58.925Z,657.00
2023-05-22T08:50:58.930Z,639.00
2023-05-22T08:51:58.912Z,640.00
2023-05-22T08:52:59.447Z,637.00
2023-05-22T08:53:58.862Z,620.00
2023-05-22T08:54:58.817Z,593.00
2023-05-22T08:55:58.829Z,587.00
2023-05-22T08:56:58.768Z,571.00
2023-05-22T08:57:58.775Z,570.00
2023-05-22T08:58:58.777Z,550.00
2023-05-22T08:59:59.081Z,540.00
2023-05-22T09:00:58.763Z,546.00
2023-05-22T09:01:58.747Z,547.00
2023-05-22T09:02:58.853Z,533.00
2023-05-22T09:03:58.752Z,530.00
2023-05-22T09:04:58.697Z,518.00
2023-05-22T09:05:58.661Z,508.00
2023-05-22T09:06:58.732Z,510.00
2023-05-22T09:08:08.445Z,521.00
2023-05-22T09:08:59.850Z,522.00
2023-05-22T09:09:58.596Z,525.00
2023-05-22T09:10:58.660Z,528.00
2023-05-22T09:11:58.593Z,523.00
2023-05-22T09:12:58.600Z,520.00
2023-05-22T09:13:59.179Z,518.00
2023-05-22T09:14:58.437Z,530.00
2023-05-22T09:15:58.411Z,530.00
2023-05-22T09:16:58.393Z,531.00
2023-05-22T09:17:58.362Z,522.00
2023-05-22T09:18:58.321Z,522.00
2023-05-22T09:19:58.312Z,523.00
2023-05-22T09:20:58.174Z,523.00
2023-05-22T09:21:58.143Z,516.00
2023-05-22T09:22:58.158Z,506.00
2023-05-22T09:23:58.095Z,503.00
2023-05-22T09:24:58.617Z,507.00
2023-05-22T09:25:58.028Z,512.00
2023-05-22T09:26:58.031Z,500.00
2023-05-22T09:27:57.980Z,502.00
2023-05-22T09:28:57.970Z,505.00
2023-05-22T09:29:57.913Z,515.00
2023-05-22T09:30:57.925Z,519.00
2023-05-22T09:31:57.904Z,524.00
2023-05-22T09:32:57.850Z,514.00
2023-05-22T09:33:57.835Z,507.00
2023-05-22T09:34:57.766Z,509.00
2023-05-22T09:35:57.845Z,524.00
2023-05-22T09:36:57.711Z,571.00
2023-05-22T09:37:57.733Z,597.00
2023-05-22T09:38:57.644Z,591.00
2023-05-22T09:39:57.609Z,590.00
2023-05-22T09:40:57.636Z,624.00
2023-05-22T09:41:57.606Z,548.00
2023-05-22T09:42:58.071Z,500.00
2023-05-22T09:43:58.337Z,400.00
2023-05-22T09:44:57.622Z,400.00
2023-05-22T09:45:57.607Z,400.00
2023-05-22T09:46:57.569Z,400.00
2023-05-22T09:47:57.649Z,400.00
2023-05-22T09:48:57.514Z,400.00
2023-05-22T09:49:57.644Z,400.00
2023-05-22T09:50:57.517Z,400.00
2023-05-22T09:51:57.650Z,400.00
2023-05-22T09:52:57.551Z,400.00
2023-05-22T09:53:58.052Z,400.00
2023-05-22T09:54:57.584Z,400.00
2023-05-22T09:55:57.572Z,400.00
2023-05-22T09:56:57.690Z,400.00
2023-05-22T09:57:57.551Z,400.00
2023-05-22T09:58:57.516Z,400.00
2023-05-22T09:59:57.516Z,400.00
2023-05-22T10:00:57.481Z,400.00
2023-05-22T10:01:57.637Z,400.00
2023-05-22T10:02:57.484Z,400.00
2023-05-22T10:03:57.421Z,400.00
2023-05-22T10:04:57.494Z,400.00
2023-05-22T10:05:57.331Z,400.00
2023-05-22T10:06:57.307Z,400.00
2023-05-22T10:07:57.264Z,400.00
2023-05-22T10:08:57.234Z,400.00
2023-05-22T10:09:58.088Z,400.00
2023-05-22T10:10:57.293Z,400.00
2023-05-22T10:11:57.155Z,400.00
2023-05-22T10:12:57.227Z,400.00
2023-05-22T10:13:57.269Z,400.00
2023-05-22T10:14:57.200Z,400.00
2023-05-22T10:15:57.032Z,400.00
2023-05-22T10:16:57.101Z,400.00
2023-05-22T10:17:57.102Z,400.00
2023-05-22T10:18:57.095Z,400.00
2023-05-22T10:19:57.078Z,400.00
2023-05-22T10:20:56.969Z,400.00
2023-05-22T10:21:57.024Z,400.00
2023-05-22T10:22:56.927Z,549.00
2023-05-22T10:23:56.899Z,636.00
2023-05-22T10:24:56.906Z,687.00
2023-05-22T10:25:56.908Z,875.00
2023-05-22T10:26:57.150Z,984.00
2023-05-22T10:27:57.102Z,1060.00
2023-05-22T10:28:57.778Z,1150.00
2023-05-22T10:29:57.009Z,1185.00
2023-05-22T10:30:57.070Z,1299.00
2023-05-22T10:31:57.232Z,1427.00
2023-05-22T10:32:57.265Z,1588.00
2023-05-22T10:33:57.129Z,1728.00
2023-05-22T10:34:58.073Z,1794.00
2023-05-22T10:35:57.226Z,1937.00
2023-05-22T10:37:03.142Z,1954.00
2023-05-22T10:37:58.081Z,1686.00
2023-05-22T10:38:57.227Z,1613.00
2023-05-22T10:39:57.211Z,1492.00
2023-05-22T10:40:57.193Z,1224.00
2023-05-22T10:41:57.002Z,1461.00
2023-05-22T10:42:56.991Z,1663.00
2023-05-22T10:43:57.020Z,1853.00
2023-05-22T10:44:57.137Z,2015.00
2023-05-22T10:45:57.234Z,2203.00
2023-05-22T10:46:56.954Z,2208.00
2023-05-22T10:47:56.948Z,2234.00
2023-05-22T10:48:56.844Z,2260.00
2023-05-22T10:49:57.578Z,2370.00
2023-05-22T10:50:59.260Z,2543.00
2023-05-22T10:51:56.675Z,2699.00
2023-05-22T10:52:56.647Z,2695.00
2023-05-22T10:53:56.565Z,2676.00
2023-05-22T10:54:56.519Z,2739.00
2023-05-22T10:55:56.491Z,2815.00
2023-05-22T10:56:56.520Z,2837.00
2023-05-22T10:57:56.411Z,2811.00
2023-05-22T10:58:56.305Z,2859.00
2023-05-22T10:59:56.304Z,2981.00
2023-05-22T11:00:56.296Z,3123.00
2023-05-22T11:01:56.209Z,3116.00
2023-05-22T11:02:58.578Z,3140.00
2023-05-22T11:03:57.236Z,3142.00
2023-05-22T11:04:55.992Z,3145.00
2023-05-22T11:05:55.919Z,3120.00
2023-05-22T11:06:55.914Z,3141.00
2023-05-22T11:07:55.818Z,3253.00
2023-05-22T11:08:55.786Z,3427.00
2023-05-22T11:09:55.713Z,3539.00
2023-05-22T11:10:55.660Z,3541.00
2023-05-22T11:11:55.653Z,3562.00
2023-05-22T11:12:55.555Z,3620.00
2023-05-22T11:13:55.476Z,3394.00
2023-05-22T11:14:55.517Z,3734.00
2023-05-22T11:15:55.387Z,3784.00
2023-05-22T11:16:55.413Z,3751.00
2023-05-22T11:17:55.510Z,3312.00
2023-05-22T11:18:55.264Z,3273.00
2023-05-22T11:19:55.348Z,3416.00
2023-05-22T11:20:55.129Z,3193.00
2023-05-22T11:21:55.058Z,3109.00
2023-05-22T11:22:55.043Z,3072.00
2023-05-22T11:23:54.953Z,2704.00
2023-05-22T11:24:54.915Z,2477.00
2023-05-22T11:25:54.879Z,2101.00
2023-05-22T11:26:54.828Z,2267.00
2023-05-22T11:27:54.834Z,2335.00
2023-05-22T11:28:54.793Z,2278.00
2023-05-22T11:29:54.703Z,2431.00
2023-05-22T11:30:54.661Z,1839.00
2023-05-22T11:31:54.597Z,1350.00
2023-05-22T11:32:54.640Z,1121.00
2023-05-22T11:33:54.566Z,742.00
2023-05-22T11:34:54.555Z,648.00
2023-05-22T11:35:54.502Z,506.00
2023-05-22T11:36:54.520Z,525.00
2023-05-22T11:37:54.466Z,668.00
2023-05-22T11:38:54.439Z,884.00
2023-05-22T11:39:54.410Z,957.00
2023-05-22T11:40:54.397Z,1091.00
2023-05-22T11:41:54.342Z,1177.00
2023-05-22T11:42:54.483Z,1322.00
2023-05-22T11:43:54.270Z,1557.00
2023-05-22T11:44:54.213Z,1697.00
2023-05-22T11:45:54.180Z,1796.00
2023-05-22T11:46:54.240Z,1934.00
2023-05-22T11:47:54.234Z,2059.00
2023-05-22T11:48:54.329Z,2201.00
2023-05-22T11:49:54.222Z,2297.00
2023-05-22T11:50:54.279Z,2448.00
2023-05-22T11:51:54.294Z,2544.00
2023-05-22T11:52:54.320Z,2635.00
2023-05-22T11:53:54.330Z,2731.00
2023-05-22T11:54:54.361Z,2816.00
2023-05-22T11:55:54.390Z,2905.00
2023-05-22T11:56:54.431Z,3019.00
2023-05-22T11:57:54.466Z,3110.00
2023-05-22T11:58:54.501Z,3200.00
2023-05-22T11:59:54.523Z,3313.00
2023-05-22T12:00:54.572Z,3367.00
2023-05-22T12:01:54.575Z,3444.00
2023-05-22T12:02:54.676Z,3531.00
2023-05-22T12:03:54.705Z,3604.00
2023-05-22T12:04:54.727Z,3661.00
2023-05-22T12:05:54.709Z,3691.00
2023-05-22T12:06:54.944Z,3733.00
2023-05-22T12:07:54.721Z,3791.00
2023-05-22T12:08:54.750Z,3840.00
2023-05-22T12:09:54.774Z,3896.00